Time;durP1;ratioP1;P1;durP2;ratioP2;P2;SDS_P1;SDS_P2;PMS_P1;PMS_P2;Temp;Humidity;BMP_temperature;BMP_pressure;BME280_temperature;BME280_humidity;BME280_pressure;Samples;Min_cycle;Max_cycle;Signal;HPM_P1;HPM_P2
2021/07/25 00:00:59;;;;;;;11.73;7.40;;;;;;;21.52;76.58;99698.25;5029115;28;20407;-77
2021/07/25 00:03:25;;;;;;;8.07;7.28;;;;;;;21.51;76.64;99696.63;5032691;28;20426;-77
2021/07/25 00:05:50;;;;;;;8.07;6.90;;;;;;;21.46;76.55;99700.41;5030099;28;20466;-77
2021/07/25 00:08:15;;;;;;;7.80;6.97;;;;;;;21.41;76.49;99692.31;5029495;28;20625;-77
2021/07/25 00:10:46;;;;;;;8.97;7.27;;;;;;;21.40;76.67;99701.75;5031477;28;20490;-77
2021/07/25 00:13:14;;;;;;;8.75;7.03;;;;;;;21.33;76.67;99701.47;5030131;28;20414;-77
2021/07/25 00:15:39;;;;;;;10.05;7.18;;;;;;;21.33;76.87;99703.41;5031957;28;20761;-77
2021/07/25 00:18:05;;;;;;;11.83;7.87;;;;;;;21.32;76.53;99690.78;5031265;28;20420;-77
2021/07/25 00:20:33;;;;;;;18.15;8.07;;;;;;;21.32;76.63;99685.25;5032741;28;20395;-77
2021/07/25 00:22:59;;;;;;;9.77;7.93;;;;;;;21.29;76.71;99683.19;5028534;28;20917;-77
2021/07/25 00:25:25;;;;;;;10.47;7.23;;;;;;;21.30;76.60;99680.09;5013814;28;20423;-77
2021/07/25 00:28:00;;;;;;;12.10;7.20;;;;;;;21.32;76.65;99682.50;5030688;28;20411;-77
2021/07/25 00:30:26;;;;;;;7.97;7.22;;;;;;;21.30;76.46;99680.09;5028765;28;20426;-77
2021/07/25 00:32:52;;;;;;;9.27;7.93;;;;;;;21.35;76.51;99684.59;5030110;28;20501;-77
2021/07/25 00:35:18;;;;;;;8.43;7.63;;;;;;;21.36;76.33;99683.47;5023354;28;20457;-77
2021/07/25 00:37:47;;;;;;;14.27;7.53;;;;;;;21.36;76.31;99683.47;5031583;28;20418;-77
2021/07/25 00:40:22;;;;;;;8.50;7.60;;;;;;;21.38;76.68;99686.69;5030434;28;20403;-77
2021/07/25 00:42:47;;;;;;;11.83;7.77;;;;;;;21.40;76.76;99682.47;5030385;28;20469;-77
2021/07/25 00:45:12;;;;;;;12.10;7.20;;;;;;;21.41;76.46;99684.06;5030621;28;20419;-77
2021/07/25 00:47:39;;;;;;;7.87;6.73;;;;;;;21.35;76.50;99688.16;5008645;28;20411;-77
2021/07/25 00:50:07;;;;;;;10.05;7.32;;;;;;;21.28;76.45;99682.38;5030326;28;20414;-77
2021/07/25 00:52:32;;;;;;;8.23;7.20;;;;;;;21.29;76.30;99696.97;5011322;28;20767;-77
2021/07/25 00:54:59;;;;;;;9.45;7.47;;;;;;;21.33;76.33;99695.97;5031809;28;20421;-77
2021/07/25 00:57:24;;;;;;;8.05;7.07;;;;;;;21.35;76.45;99679.06;5026982;28;20417;-77
2021/07/25 00:59:49;;;;;;;9.03;7.80;;;;;;;21.29;76.37;99683.19;5027909;28;20474;-77
2021/07/25 01:02:15;;;;;;;9.53;7.70;;;;;;;21.22;76.63;99689.22;5027761;28;20415;-77
2021/07/25 01:05:10;;;;;;;8.27;7.37;;;;;;;21.25;76.28;99688.56;5028051;28;20485;-77
2021/07/25 01:07:57;;;;;;;9.95;7.85;;;;;;;21.31;76.37;99681.69;5022606;28;20485;-77
2021/07/25 01:10:27;;;;;;;9.68;7.45;;;;;;;21.33;76.42;99686.88;5027849;28;20978;-77
2021/07/25 01:13:00;;;;;;;8.18;6.88;;;;;;;21.36;76.67;99694.47;5027844;28;20411;-76
2021/07/25 01:15:29;;;;;;;10.25;6.43;;;;;;;21.39;76.72;99691.06;5027262;28;20878;-77
2021/07/25 01:17:54;;;;;;;8.88;7.10;;;;;;;21.42;76.41;99696.72;5028236;28;20510;-77
2021/07/25 01:20:21;;;;;;;7.68;6.97;;;;;;;21.46;75.78;99689.38;5028138;28;20851;-77
2021/07/25 01:22:51;;;;;;;9.98;7.55;;;;;;;21.49;75.57;99685.16;5028304;28;20411;-77
2021/07/25 01:25:19;;;;;;;8.52;7.40;;;;;;;21.51;75.99;99683.66;5029052;28;20407;-77
2021/07/25 01:27:52;;;;;;;9.23;7.63;;;;;;;21.51;76.25;99688.38;5032128;28;20494;-77
2021/07/25 01:30:20;;;;;;;8.07;6.97;;;;;;;21.52;76.70;99695.50;5029972;28;20883;-77
2021/07/25 01:32:47;;;;;;;8.02;7.10;;;;;;;21.49;76.47;99691.47;5028667;28;20957;-77
2021/07/25 01:35:14;;;;;;;7.90;6.60;;;;;;;21.46;76.78;99685.81;5029723;28;20415;-77
2021/07/25 01:37:40;;;;;;;8.93;7.05;;;;;;;21.46;76.50;99680.31;5013055;28;20477;-77
2021/07/25 01:40:18;;;;;;;10.23;7.38;;;;;;;21.45;76.68;99693.28;5034997;28;20493;-77
2021/07/25 01:42:44;;;;;;;9.32;7.57;;;;;;;21.46;76.09;99689.38;5029584;28;20433;-77
2021/07/25 01:45:10;;;;;;;8.68;7.75;;;;;;;21.47;76.28;99692.97;5039562;28;20401;-77
2021/07/25 01:47:36;;;;;;;9.77;7.43;;;;;;;21.45;75.60;99687.75;5034321;28;20494;-77
2021/07/25 01:50:02;;;;;;;9.13;7.30;;;;;;;21.46;75.84;99691.34;5033685;28;20417;-77
2021/07/25 01:52:27;;;;;;;9.15;6.60;;;;;;;21.47;75.51;99685.47;5032732;28;20407;-77
2021/07/25 01:54:53;;;;;;;7.53;6.47;;;;;;;21.47;75.34;99690.97;5031123;28;20743;-77
2021/07/25 01:57:18;;;;;;;8.57;7.00;;;;;;;21.47;75.57;99681.94;5028782;28;20406;-77
2021/07/25 01:59:43;;;;;;;8.60;7.03;;;;;;;21.46;75.80;99694.91;5031256;28;20426;-77
2021/07/25 02:02:09;;;;;;;9.07;7.50;;;;;;;21.46;75.25;99697.66;5032091;28;20449;-77
2021/07/25 02:04:34;;;;;;;7.87;7.07;;;;;;;21.48;75.52;99697.31;5032231;28;20805;-77
2021/07/25 02:06:59;;;;;;;8.40;7.10;;;;;;;21.48;75.60;99691.78;5031414;28;20415;-77
2021/07/25 02:09:26;;;;;;;9.73;7.07;;;;;;;21.49;76.06;99693.41;5029551;28;20415;-77
2021/07/25 02:11:51;;;;;;;11.38;7.80;;;;;;;21.48;76.22;99702.81;5030771;28;20778;-77
2021/07/25 02:14:16;;;;;;;8.80;7.30;;;;;;;21.47;76.32;99696.50;5032779;28;20426;-77
2021/07/25 02:16:42;;;;;;;8.70;6.87;;;;;;;21.46;76.26;99702.38;5032670;28;20431;-77
2021/07/25 02:19:07;;;;;;;8.13;6.53;;;;;;;21.45;76.29;99692.47;5032530;28;20422;-77
2021/07/25 02:21:32;;;;;;;10.27;6.50;;;;;;;21.45;76.76;99696.03;5033194;28;20455;-77
2021/07/25 02:23:57;;;;;;;7.23;6.53;;;;;;;21.43;76.39;99692.81;5030840;28;20516;-78
2021/07/25 02:26:23;;;;;;;9.07;7.17;;;;;;;21.42;76.13;99695.91;5032491;28;20435;-77
2021/07/25 02:28:48;;;;;;;10.53;7.10;;;;;;;21.41;76.22;99700.59;5014324;28;20433;-77
2021/07/25 02:31:13;;;;;;;8.40;7.60;;;;;;;21.32;76.20;99708.13;5031592;28;20425;-77
2021/07/25 02:33:38;;;;;;;8.53;7.63;;;;;;;21.27;76.63;99700.06;5027993;28;20524;-78
2021/07/25 02:36:04;;;;;;;8.63;7.53;;;;;;;21.28;76.58;99706.34;5033192;28;20418;-78
2021/07/25 02:38:29;;;;;;;8.93;7.30;;;;;;;21.30;76.43;99709.59;5020387;28;20744;-77
2021/07/25 02:40:54;;;;;;;8.63;7.90;;;;;;;21.32;76.49;99708.13;5010383;28;20770;-78
2021/07/25 02:43:19;;;;;;;10.52;8.10;;;;;;;21.33;76.43;99714.44;5033569;28;20463;-78
2021/07/25 02:45:45;;;;;;;9.27;7.63;;;;;;;21.26;76.50;99706.72;5031483;28;20404;-77
2021/07/25 02:48:10;;;;;;;15.63;7.30;;;;;;;21.21;76.71;99706.88;5031543;28;20822;-77
2021/07/25 02:50:35;;;;;;;9.10;8.13;;;;;;;21.23;76.69;99710.13;5030075;28;20912;-78
2021/07/25 02:53:01;;;;;;;11.70;8.00;;;;;;;21.21;76.63;99704.13;5031362;28;20414;-77
2021/07/25 02:55:26;;;;;;;11.73;7.83;;;;;;;21.17;76.86;99708.72;5032913;28;20426;-77
2021/07/25 02:57:52;;;;;;;9.73;7.60;;;;;;;21.06;76.89;99705.50;5030088;28;20414;-77
2021/07/25 03:00:17;;;;;;;11.40;8.20;;;;;;;21.03;77.05;99702.59;5028632;28;20785;-77
2021/07/25 03:02:43;;;;;;;12.27;8.52;;;;;;;20.99;77.24;99698.88;5031104;28;20407;-77
2021/07/25 03:05:09;;;;;;;10.60;7.13;;;;;;;20.99;77.04;99707.16;5023570;28;20794;-77
2021/07/25 03:07:34;;;;;;;9.35;7.65;;;;;;;21.02;76.93;99696.28;5032470;28;20797;-78
2021/07/25 03:09:59;;;;;;;9.03;7.70;;;;;;;21.05;76.97;99690.09;5031073;28;20418;-78
2021/07/25 03:12:26;;;;;;;11.30;8.48;;;;;;;21.02;77.05;99703.72;5028606;28;20411;-78
2021/07/25 03:14:51;;;;;;;12.35;7.50;;;;;;;21.06;76.93;99693.66;5029704;28;20419;-77
2021/07/25 03:17:16;;;;;;;11.03;7.97;;;;;;;21.11;76.55;99696.25;5031711;28;20898;-78
2021/07/25 03:19:42;;;;;;;9.87;7.47;;;;;;;21.10;76.44;99691.91;5032415;28;20395;-78
2021/07/25 03:22:09;;;;;;;8.40;7.50;;;;;;;21.11;76.50;99699.00;5030740;28;20407;-77
2021/07/25 03:24:35;;;;;;;8.85;7.45;;;;;;;21.06;76.53;99705.50;5032497;28;20455;-78
2021/07/25 03:27:00;;;;;;;8.20;7.17;;;;;;;20.97;77.04;99702.00;5010996;28;20450;-78
2021/07/25 03:29:26;;;;;;;7.90;7.10;;;;;;;20.94;77.15;99705.41;5032243;28;20403;-77
2021/07/25 03:31:51;;;;;;;10.87;6.40;;;;;;;20.97;77.22;99709.44;5030255;28;20411;-78
2021/07/25 03:34:17;;;;;;;11.43;7.40;;;;;;;20.97;77.40;99706.69;5030848;28;20442;-78
2021/07/25 03:36:43;;;;;;;8.23;7.13;;;;;;;20.96;77.13;99708.63;5028898;28;20451;-78
2021/07/25 03:39:13;;;;;;;8.18;7.10;;;;;;;20.94;77.49;99713.66;5029327;28;20425;-79
2021/07/25 03:41:38;;;;;;;11.95;6.90;;;;;;;20.96;77.39;99711.38;5028922;28;20538;-78
2021/07/25 03:44:04;;;;;;;9.87;7.30;;;;;;;21.00;77.33;99711.53;5034658;28;20428;-78
2021/07/25 03:46:30;;;;;;;9.03;7.97;;;;;;;20.99;77.26;99710.72;5031104;28;20414;-78
2021/07/25 03:48:55;;;;;;;9.63;7.10;;;;;;;20.97;77.47;99713.00;5030461;28;20399;-78
2021/07/25 03:51:20;;;;;;;7.47;6.77;;;;;;;20.97;77.38;99712.19;5031373;28;20433;-78
2021/07/25 03:53:46;;;;;;;10.83;7.30;;;;;;;20.90;77.53;99712.72;5027806;28;20407;-77
2021/07/25 03:56:11;;;;;;;9.13;7.83;;;;;;;20.87;77.83;99712.56;5030936;28;20777;-78
2021/07/25 03:58:36;;;;;;;11.03;6.87;;;;;;;20.91;77.70;99710.75;5031636;28;20398;-79
2021/07/25 04:01:02;;;;;;;12.63;7.78;;;;;;;20.92;77.44;99717.88;5029982;28;20908;-78
2021/07/25 04:03:27;;;;;;;10.50;7.40;;;;;;;20.95;77.15;99706.19;5030675;28;20403;-78
2021/07/25 04:05:52;;;;;;;10.97;7.30;;;;;;;20.95;77.19;99704.25;5030287;28;20548;-78
2021/07/25 04:08:18;;;;;;;11.57;7.53;;;;;;;20.94;77.32;99708.16;5030704;28;20758;-78
2021/07/25 04:10:44;;;;;;;8.10;7.05;;;;;;;20.91;77.47;99708.78;5028983;28;20504;-79
2021/07/25 04:13:11;;;;;;;8.93;7.10;;;;;;;20.91;77.61;99706.03;5031080;28;20886;-78
2021/07/25 04:15:40;;;;;;;7.95;7.00;;;;;;;20.85;77.65;99715.63;5030119;28;20484;-78
2021/07/25 04:18:06;;;;;;;8.75;6.47;;;;;;;20.88;77.50;99714.19;5036285;28;20409;-79
2021/07/25 04:20:35;;;;;;;10.23;6.97;;;;;;;20.91;77.38;99716.28;5024617;28;21166;-79
2021/07/25 04:23:02;;;;;;;10.15;7.28;;;;;;;20.90;77.25;99718.22;5027317;28;20422;-78
2021/07/25 04:25:28;;;;;;;9.90;6.87;;;;;;;20.98;77.39;99720.09;5031255;28;20425;-79
2021/07/25 04:27:54;;;;;;;7.90;6.65;;;;;;;21.05;76.86;99720.41;5030560;28;20560;-79
2021/07/25 04:30:20;;;;;;;7.50;6.53;;;;;;;21.11;76.62;99723.78;5029885;28;20423;-78
2021/07/25 04:32:45;;;;;;;9.90;7.30;;;;;;;21.16;76.33;99723.63;5030678;28;20414;-79
2021/07/25 04:35:11;;;;;;;9.73;7.37;;;;;;;21.18;76.38;99733.16;5035242;28;20547;-78
2021/07/25 04:37:47;;;;;;;11.77;7.33;;;;;;;21.18;76.59;99733.16;5028160;28;20411;-79
2021/07/25 04:40:13;;;;;;;9.52;7.00;;;;;;;21.18;76.50;99735.91;5029966;28;20461;-79
2021/07/25 04:42:45;;;;;;;11.40;7.40;;;;;;;21.19;76.46;99731.22;5030126;28;20411;-79
2021/07/25 04:45:14;;;;;;;11.75;7.90;;;;;;;21.19;76.44;99731.22;5030337;28;20769;-79
2021/07/25 04:48:05;;;;;;;9.48;7.97;;;;;;;21.19;76.40;99742.25;5025816;28;20443;-79
2021/07/25 04:50:37;;;;;;;9.52;7.47;;;;;;;21.21;76.48;99742.72;5031792;28;20407;-79
2021/07/25 04:53:04;;;;;;;9.95;7.28;;;;;;;21.18;76.99;99744.19;5028805;28;20423;-78
2021/07/25 04:55:35;;;;;;;8.30;7.32;;;;;;;21.16;76.81;99742.91;5028949;28;20423;-79
2021/07/25 04:58:07;;;;;;;11.43;7.72;;;;;;;21.03;76.81;99744.72;5029610;28;20506;-79
2021/07/25 05:00:38;;;;;;;8.68;7.00;;;;;;;21.01;77.18;99747.00;5030412;28;20407;-79
2021/07/25 05:03:05;;;;;;;10.20;7.70;;;;;;;21.02;77.12;99737.59;5028740;28;20763;-79
2021/07/25 05:05:32;;;;;;;9.02;7.90;;;;;;;21.05;76.94;99742.44;5029352;28;20421;-79
2021/07/25 05:08:00;;;;;;;13.02;7.88;;;;;;;21.12;76.70;99744.72;5028259;28;20502;-79
2021/07/25 05:10:26;;;;;;;9.38;7.53;;;;;;;21.15;76.69;99744.84;5029048;28;20414;-79
2021/07/25 05:12:58;;;;;;;12.50;6.83;;;;;;;21.17;76.40;99739.03;5028602;28;20407;-79
2021/07/25 05:15:27;;;;;;;10.40;7.65;;;;;;;21.18;76.36;99743.38;5026714;28;20418;-79
2021/07/25 05:18:01;;;;;;;9.30;7.20;;;;;;;21.17;76.62;99745.31;5029333;28;20410;-79
2021/07/25 05:20:37;;;;;;;10.25;8.05;;;;;;;21.23;76.39;99742.38;5026788;28;20410;-79
2021/07/25 05:23:12;;;;;;;9.88;7.53;;;;;;;21.20;76.49;99752.13;5028732;28;20552;-80
2021/07/25 05:25:40;;;;;;;8.85;7.30;;;;;;;21.20;76.05;99750.19;5024297;28;20425;-80
2021/07/25 05:28:06;;;;;;;10.85;7.45;;;;;;;21.19;76.37;99754.06;5010106;28;20424;-79
2021/07/25 05:30:32;;;;;;;8.00;7.20;;;;;;;21.13;76.81;99752.66;5009286;28;20844;-79
2021/07/25 05:32:57;;;;;;;8.35;7.10;;;;;;;21.09;76.90;99745.34;5020378;28;20459;-79
2021/07/25 05:35:23;;;;;;;8.93;7.40;;;;;;;21.04;76.94;99756.56;5011008;28;20876;-79
2021/07/25 05:37:48;;;;;;;8.03;7.27;;;;;;;20.99;77.19;99753.97;5007125;28;20473;-80
2021/07/25 05:40:15;;;;;;;8.80;7.17;;;;;;;20.96;77.39;99757.38;5010459;28;20876;-79
2021/07/25 05:42:41;;;;;;;7.25;6.55;;;;;;;20.94;77.45;99762.44;5011689;28;20527;-79
2021/07/25 05:45:09;;;;;;;10.80;7.67;;;;;;;20.95;77.48;99755.78;5011004;28;20400;-79
2021/07/25 05:47:35;;;;;;;9.95;7.20;;;;;;;20.96;77.64;99762.91;5007545;28;20428;-79
2021/07/25 05:50:00;;;;;;;9.43;7.55;;;;;;;20.96;77.78;99766.47;5007852;28;20474;-80
2021/07/25 05:52:25;;;;;;;10.40;7.60;;;;;;;20.93;77.95;99769.88;5008294;28;20413;-80
2021/07/25 05:54:51;;;;;;;11.57;6.97;;;;;;;20.86;78.17;99766.84;5009405;28;20423;-79
2021/07/25 05:57:16;;;;;;;12.52;8.25;;;;;;;20.86;78.24;99771.53;5009606;28;20444;-79
2021/07/25 05:59:42;;;;;;;10.10;7.97;;;;;;;20.87;78.20;99773.16;5009739;28;20412;-79
2021/07/25 06:02:07;;;;;;;10.27;7.23;;;;;;;20.89;78.28;99768.91;5007196;28;20723;-79
2021/07/25 06:04:32;;;;;;;7.20;6.50;;;;;;;20.97;78.13;99762.59;5007625;28;20470;-79
2021/07/25 06:06:58;;;;;;;9.18;7.15;;;;;;;21.02;77.93;99767.91;5008813;28;20521;-80
2021/07/25 06:09:24;;;;;;;8.33;6.60;;;;;;;21.00;78.01;99764.69;5009355;28;20499;-79
2021/07/25 06:11:50;;;;;;;8.48;7.30;;;;;;;21.07;77.83;99767.72;5009458;28;20911;-79
2021/07/25 06:14:16;;;;;;;10.43;6.93;;;;;;;21.18;77.56;99771.75;5009527;28;20408;-79
2021/07/25 06:16:41;;;;;;;9.77;6.83;;;;;;;21.28;77.52;99772.50;5009982;28;20473;-80
2021/07/25 06:19:06;;;;;;;10.70;7.47;;;;;;;21.38;77.02;99774.88;5010489;28;20547;-79
2021/07/25 06:21:32;;;;;;;11.40;7.07;;;;;;;21.47;76.91;99762.66;5010331;28;20768;-80
2021/07/25 06:23:58;;;;;;;8.87;6.60;;;;;;;21.50;76.82;99763.97;5014540;28;20414;-79
2021/07/25 06:26:23;;;;;;;8.27;6.82;;;;;;;21.49;76.65;99774.19;5027337;28;20418;-79
2021/07/25 06:28:49;;;;;;;8.93;6.50;;;;;;;21.44;76.59;99768.84;5028222;28;20410;-81
2021/07/25 06:31:15;;;;;;;8.52;6.18;;;;;;;21.44;76.58;99765.31;5029875;28;20411;-79
2021/07/25 06:33:40;;;;;;;9.87;6.77;;;;;;;21.41;76.64;99769.50;5030958;28;20449;-80
2021/07/25 06:36:12;;;;;;;7.13;6.37;;;;;;;21.44;76.27;99768.06;5030724;28;20504;-79
2021/07/25 06:38:39;;;;;;;6.65;6.03;;;;;;;21.32;76.86;99771.50;5029957;28;20415;-79
2021/07/25 06:41:06;;;;;;;9.68;6.10;;;;;;;21.38;76.73;99772.13;5018059;28;20841;-79
2021/07/25 06:43:32;;;;;;;7.20;6.25;;;;;;;21.42;76.11;99770.31;5020941;28;20414;-79
2021/07/25 06:45:57;;;;;;;8.70;6.40;;;;;;;21.44;76.12;99768.84;5022665;28;20414;-79
2021/07/25 06:48:25;;;;;;;10.95;6.00;;;;;;;21.46;76.42;99763.00;5018859;28;20501;-79
2021/07/25 06:50:52;;;;;;;7.15;5.85;;;;;;;21.46;76.60;99765.75;5022658;28;20489;-80
2021/07/25 06:53:19;;;;;;;6.97;5.30;;;;;;;21.43;76.80;99761.72;5029106;28;20411;-79
2021/07/25 06:55:45;;;;;;;7.65;5.80;;;;;;;21.43;76.55;99760.91;5027183;28;20469;-79
2021/07/25 06:58:10;;;;;;;6.32;5.22;;;;;;;21.40;76.45;99753.31;5031887;28;20495;-80
2021/07/25 07:00:35;;;;;;;8.90;6.70;;;;;;;21.47;76.07;99751.63;5027659;28;20407;-80
2021/07/25 07:03:01;;;;;;;7.73;5.07;;;;;;;21.54;76.32;99748.34;5031168;28;20403;-80
2021/07/25 07:05:28;;;;;;;8.43;5.72;;;;;;;21.66;76.18;99745.69;5032306;28;20426;-80
2021/07/25 07:07:56;;;;;;;12.30;5.88;;;;;;;21.78;75.63;99747.69;5029479;28;20906;-80
2021/07/25 07:10:25;;;;;;;5.65;5.10;;;;;;;21.76;75.37;99750.81;5030948;28;20420;-81
2021/07/25 07:12:52;;;;;;;5.97;5.17;;;;;;;21.76;75.23;99752.75;5027935;28;20411;-81
2021/07/25 07:15:19;;;;;;;5.55;5.10;;;;;;;21.73;75.38;99748.72;5020823;28;20507;-81
2021/07/25 07:17:44;;;;;;;8.85;4.70;;;;;;;21.75;75.63;99754.69;5023929;28;20422;-81
2021/07/25 07:20:11;;;;;;;5.27;4.83;;;;;;;21.75;75.32;99757.44;5025846;28;20770;-81
2021/07/25 07:22:37;;;;;;;7.43;4.93;;;;;;;21.75;75.17;99760.22;5029143;28;20449;-81
2021/07/25 07:25:05;;;;;;;5.10;4.30;;;;;;;21.79;74.23;99752.88;5029562;28;20928;-81
2021/07/25 07:27:32;;;;;;;5.07;4.68;;;;;;;21.83;74.12;99753.03;5030741;28;20418;-80
2021/07/25 07:29:58;;;;;;;6.00;4.75;;;;;;;21.83;73.98;99761.31;5025985;28;20410;-80
2021/07/25 07:32:24;;;;;;;8.02;4.93;;;;;;;21.83;74.02;99756.59;5019326;28;20596;-81
2021/07/25 07:34:49;;;;;;;4.88;4.20;;;;;;;21.84;73.50;99762.88;5018961;28;20413;-81
2021/07/25 07:37:14;;;;;;;6.03;4.30;;;;;;;21.85;72.50;99761.75;5021740;28;20765;-80
2021/07/25 07:39:41;;;;;;;4.70;4.30;;;;;;;21.92;72.53;99764.81;5018898;28;20415;-80
2021/07/25 07:42:08;;;;;;;6.70;4.15;;;;;;;21.98;71.87;99774.50;5020228;28;20924;-80
2021/07/25 07:44:35;;;;;;;5.00;4.43;;;;;;;22.03;71.94;99772.34;5018317;28;21682;-80
2021/07/25 07:47:00;;;;;;;7.10;4.70;;;;;;;22.07;71.95;99772.47;5019608;28;20418;-81
2021/07/25 07:49:26;;;;;;;5.22;4.00;;;;;;;22.17;71.72;99781.16;5023374;28;20407;-81
2021/07/25 07:51:51;;;;;;;4.53;4.13;;;;;;;22.21;71.62;99771.06;5017656;28;20426;-80
2021/07/25 07:54:17;;;;;;;4.40;4.03;;;;;;;22.30;71.90;99759.94;5018585;28;20458;-80
2021/07/25 07:56:42;;;;;;;7.00;4.23;;;;;;;22.31;70.23;99769.84;5018387;28;20486;-81
2021/07/25 07:59:07;;;;;;;4.10;3.80;;;;;;;22.30;69.48;99759.94;5022170;28;20407;-80
2021/07/25 08:01:32;;;;;;;4.27;3.63;;;;;;;22.36;70.29;99755.81;5017551;28;20789;-80
2021/07/25 08:03:58;;;;;;;5.03;4.53;;;;;;;22.44;71.19;99763.22;5017244;28;20419;-80
2021/07/25 08:06:23;;;;;;;4.23;3.83;;;;;;;22.47;69.97;99751.47;5019018;28;20498;-80
2021/07/25 08:08:48;;;;;;;4.80;4.07;;;;;;;22.50;68.60;99753.56;5020777;28;20418;-80
2021/07/25 08:11:13;;;;;;;5.37;4.00;;;;;;;22.49;67.47;99754.69;5019504;28;20790;-81
2021/07/25 08:13:39;;;;;;;4.27;3.87;;;;;;;22.54;67.80;99750.91;5019458;28;20458;-80
2021/07/25 08:16:04;;;;;;;4.70;3.60;;;;;;;22.54;68.13;99751.72;5018612;28;20488;-80
2021/07/25 08:18:30;;;;;;;3.93;3.63;;;;;;;22.53;68.64;99746.53;5019622;28;20588;-81
2021/07/25 08:20:55;;;;;;;6.60;3.40;;;;;;;22.62;67.92;99750.03;5019504;28;20400;-81
2021/07/25 08:23:21;;;;;;;6.53;3.57;;;;;;;22.78;67.52;99744.69;5019126;28;20410;-80
2021/07/25 08:25:47;;;;;;;6.80;4.25;;;;;;;22.85;68.31;99736.63;5020395;28;20410;-80
2021/07/25 08:28:12;;;;;;;4.17;3.73;;;;;;;22.94;67.57;99746.44;5019518;28;20420;-80
2021/07/25 08:30:37;;;;;;;4.28;3.88;;;;;;;22.95;66.96;99739.75;5012931;28;20490;-79
2021/07/25 08:33:03;;;;;;;4.73;3.77;;;;;;;22.95;67.72;99739.75;5029563;28;20411;-80
2021/07/25 08:35:28;;;;;;;5.00;4.23;;;;;;;22.89;67.57;99743.06;5027259;28;20450;-80
2021/07/25 08:37:53;;;;;;;4.57;4.10;;;;;;;22.98;66.98;99746.56;5029608;28;20415;-80
2021/07/25 08:40:21;;;;;;;6.47;4.00;;;;;;;23.01;66.70;99743.09;5027728;28;20439;-80
2021/07/25 08:43:01;;;;;;;5.68;3.00;;;;;;;23.03;65.15;99746.31;5027169;28;21254;-80
2021/07/25 08:45:27;;;;;;;2.93;2.80;;;;;;;23.06;64.68;99746.44;5004402;28;20793;-80
2021/07/25 08:48:03;;;;;;;3.67;3.05;;;;;;;23.15;63.46;99744.34;5027510;28;20418;-81
2021/07/25 08:50:29;;;;;;;2.90;2.70;;;;;;;23.22;61.49;99746.53;5030587;28;20870;-80
2021/07/25 08:52:55;;;;;;;6.18;3.17;;;;;;;23.29;60.84;99746.78;5029637;28;20554;-81
2021/07/25 08:55:21;;;;;;;3.03;2.65;;;;;;;23.32;60.02;99745.25;5030238;28;20422;-80
2021/07/25 08:57:49;;;;;;;3.63;3.33;;;;;;;23.39;62.50;99739.97;5029150;28;20452;-80
2021/07/25 09:00:18;;;;;;;4.33;3.33;;;;;;;23.55;62.38;99740.88;5028835;28;20488;-80
2021/07/25 09:02:44;;;;;;;3.55;3.03;;;;;;;23.77;61.76;99741.22;5030384;28;20415;-80
2021/07/25 09:05:10;;;;;;;3.30;2.88;;;;;;;23.85;60.86;99741.41;5029773;28;20530;-80
2021/07/25 09:07:39;;;;;;;4.40;2.53;;;;;;;23.90;58.85;99739.22;5025595;28;20403;-80
2021/07/25 09:10:14;;;;;;;5.45;2.58;;;;;;;23.87;59.39;99742.69;5030896;28;20391;-80
2021/07/25 09:12:40;;;;;;;3.10;2.90;;;;;;;23.91;59.68;99737.25;5029074;28;20750;-80
2021/07/25 09:15:10;;;;;;;3.67;2.53;;;;;;;23.91;59.99;99737.25;5030435;28;20482;-80
2021/07/25 09:17:35;;;;;;;3.08;2.72;;;;;;;24.07;60.65;99738.91;5029712;28;20423;-80
2021/07/25 09:20:09;;;;;;;2.90;2.70;;;;;;;24.25;59.89;99740.25;5030380;28;20878;-81
2021/07/25 09:22:37;;;;;;;4.00;2.70;;;;;;;24.47;58.57;99746.41;5028098;28;20437;-80
2021/07/25 09:25:03;;;;;;;3.13;2.67;;;;;;;24.63;57.05;99748.00;5029022;28;20410;-79
2021/07/25 09:27:28;;;;;;;2.95;2.70;;;;;;;24.64;57.07;99746.03;5027275;28;20403;-81
2021/07/25 09:29:54;;;;;;;3.37;2.60;;;;;;;24.66;56.65;99760.38;5030925;28;20403;-80
2021/07/25 09:32:19;;;;;;;3.13;2.93;;;;;;;24.69;58.13;99757.69;5028996;28;20848;-80
2021/07/25 09:34:47;;;;;;;4.50;3.17;;;;;;;24.85;58.17;99760.50;5029611;28;20421;-80
2021/07/25 09:37:19;;;;;;;3.60;2.88;;;;;;;24.86;57.11;99756.56;5029505;28;20419;-80
2021/07/25 09:39:51;;;;;;;7.45;2.83;;;;;;;24.95;57.55;99750.84;5030702;28;20555;-80
2021/07/25 09:42:26;;;;;;;3.13;2.83;;;;;;;25.03;56.79;99767.28;5030444;28;20488;-80
2021/07/25 09:45:00;;;;;;;2.92;2.60;;;;;;;25.04;56.16;99765.31;5029552;28;20902;-80
2021/07/25 09:47:34;;;;;;;5.50;3.20;;;;;;;24.90;56.45;99763.00;5026675;28;20454;-80
2021/07/25 09:50:01;;;;;;;2.65;2.15;;;;;;;24.91;56.44;99767.38;5030984;28;20456;-80
2021/07/25 09:52:38;;;;;;;3.10;2.53;;;;;;;25.06;56.23;99766.56;5029547;28;20418;-80
2021/07/25 09:55:08;;;;;;;3.60;2.40;;;;;;;25.28;53.89;99779.81;5030966;28;20399;-81
2021/07/25 09:57:37;;;;;;;4.35;2.83;;;;;;;25.50;54.00;99780.34;5026470;28;20925;-80
2021/07/25 10:00:12;;;;;;;3.30;2.88;;;;;;;25.70;53.63;99773.69;5032903;28;21025;-80
2021/07/25 10:02:43;;;;;;;4.38;2.60;;;;;;;25.97;51.83;99783.81;5009096;28;20445;-80
2021/07/25 10:05:09;;;;;;;3.95;2.95;;;;;;;26.51;50.46;99771.84;5033729;28;20394;-80
2021/07/25 10:07:35;;;;;;;3.83;2.67;;;;;;;26.81;49.64;99779.19;5032938;28;20450;-80
2021/07/25 10:10:01;;;;;;;2.37;2.17;;;;;;;26.97;49.32;99769.94;5027628;28;20452;-79
2021/07/25 10:12:34;;;;;;;5.38;2.65;;;;;;;27.24;49.57;99771.56;5028305;28;20485;-80
2021/07/25 10:15:03;;;;;;;3.42;3.13;;;;;;;28.12;46.41;99775.75;5029966;28;20886;-80
2021/07/25 10:17:34;;;;;;;3.40;2.50;;;;;;;29.11;44.21;99771.22;5033123;28;20908;-80
2021/07/25 10:20:01;;;;;;;4.78;2.53;;;;;;;30.38;43.35;99777.66;5032976;28;20438;-80
2021/07/25 10:22:34;;;;;;;3.35;2.30;;;;;;;33.27;36.62;99775.50;5032896;28;20407;-78
2021/07/25 10:25:02;;;;;;;3.50;2.70;;;;;;;35.36;31.45;99768.06;5030939;28;20423;-78
2021/07/25 10:27:29;;;;;;;2.53;2.35;;;;;;;36.70;29.66;99769.47;5032968;28;20506;-78
2021/07/25 10:29:58;;;;;;;4.30;2.17;;;;;;;36.42;30.80;99770.88;5031062;28;20410;-78
2021/07/25 10:32:23;;;;;;;2.30;1.92;;;;;;;36.95;30.07;99775.34;5028934;28;20411;-78
2021/07/25 10:34:49;;;;;;;4.43;2.50;;;;;;;36.79;28.63;99764.81;5033483;28;20948;-79
2021/07/25 10:37:15;;;;;;;2.17;2.08;;;;;;;37.81;27.92;99764.25;5031603;28;20513;-79
2021/07/25 10:39:48;;;;;;;2.33;2.10;;;;;;;38.43;26.58;99762.13;5032564;28;20921;-79
2021/07/25 10:42:19;;;;;;;2.65;2.55;;;;;;;38.98;26.36;99765.69;5032812;28;20438;-79
2021/07/25 10:44:45;;;;;;;3.08;2.10;;;;;;;39.02;26.72;99766.34;5031829;28;20399;-78
2021/07/25 10:47:28;;;;;;;3.50;2.10;;;;;;;39.05;26.92;99754.91;5029748;28;20793;-79
2021/07/25 10:50:01;;;;;;;2.75;2.50;;;;;;;39.70;23.70;99754.34;5032864;28;20518;-79
2021/07/25 10:52:55;;;;;;;2.40;1.92;;;;;;;39.61;24.62;99759.91;5032387;28;20506;-79
2021/07/25 10:55:41;;;;;;;6.53;2.22;;;;;;;39.61;24.98;99751.41;5021907;28;20492;-79
2021/07/25 10:58:14;;;;;;;2.50;1.73;;;;;;;39.13;25.65;99761.09;5032419;28;20898;-78
2021/07/25 11:00:54;;;;;;;2.30;2.00;;;;;;;36.58;28.75;99745.56;5022978;28;20415;-78
2021/07/25 11:03:25;;;;;;;2.30;2.10;;;;;;;35.29;30.84;99739.22;5029343;28;20429;-78
2021/07/25 11:05:59;;;;;;;2.28;2.17;;;;;;;35.29;31.14;99742.84;5030761;28;20858;-79
2021/07/25 11:08:32;;;;;;;2.22;2.10;;;;;;;33.88;33.02;99736.38;5028164;28;20421;-79
2021/07/25 11:10:58;;;;;;;2.58;2.38;;;;;;;32.58;34.69;99738.28;5032466;28;20403;-78
2021/07/25 11:13:40;;;;;;;2.35;2.22;;;;;;;31.55;37.32;99732.28;5032004;28;20418;-78
2021/07/25 11:16:31;;;;;;;2.87;2.33;;;;;;;30.72;39.60;99730.63;5026742;28;20438;-78
2021/07/25 11:18:58;;;;;;;2.83;2.63;;;;;;;31.80;37.23;99739.41;5031770;28;20415;-78
2021/07/25 11:21:40;;;;;;;2.65;2.55;;;;;;;32.87;34.61;99734.88;5032250;28;20410;-78
2021/07/25 11:24:23;;;;;;;2.45;2.10;;;;;;;35.16;31.81;99733.41;5029242;28;20505;-79
2021/07/25 11:26:56;;;;;;;3.13;2.08;;;;;;;35.84;30.26;99739.41;5028312;28;21044;-79
2021/07/25 11:29:22;;;;;;;2.25;2.15;;;;;;;36.33;29.24;99742.44;5031241;28;20411;-79
2021/07/25 11:31:48;;;;;;;4.10;2.30;;;;;;;36.95;28.57;99741.47;5030213;28;20411;-79
2021/07/25 11:34:24;;;;;;;2.17;2.00;;;;;;;37.57;27.68;99743.13;5032982;28;20470;-78